sensor_id;sensor_type;location;lat;lon;timestamp;P1;durP1;ratioP1;P2;durP2;ratioP2
8474;SDS011;4274;52.012;8.448;2023-03-01T00:00:37;44.80;;;7.27;;
8474;SDS011;4274;52.012;8.448;2023-03-01T00:03:02;46.30;;;6.50;;
8474;SDS011;4274;52.012;8.448;2023-03-01T00:05:28;42.70;;;5.93;;
8474;SDS011;4274;52.012;8.448;2023-03-01T00:07:54;49.27;;;7.13;;
8474;SDS011;4274;52.012;8.448;2023-03-01T00:10:19;45.57;;;6.40;;
8474;SDS011;4274;52.012;8.448;2023-03-01T00:12:45;46.90;;;6.87;;
8474;SDS011;4274;52.012;8.448;2023-03-01T00:15:11;46.77;;;7.93;;
8474;SDS011;4274;52.012;8.448;2023-03-01T00:17:36;48.27;;;8.13;;
8474;SDS011;4274;52.012;8.448;2023-03-01T00:20:02;46.90;;;8.20;;
8474;SDS011;4274;52.012;8.448;2023-03-01T00:22:32;43.77;;;7.30;;
8474;SDS011;4274;52.012;8.448;2023-03-01T00:24:58;46.20;;;7.00;;
8474;SDS011;4274;52.012;8.448;2023-03-01T00:27:23;45.00;;;7.70;;
8474;SDS011;4274;52.012;8.448;2023-03-01T00:29:49;45.90;;;7.70;;
8474;SDS011;4274;52.012;8.448;2023-03-01T00:32:14;43.97;;;7.30;;
8474;SDS011;4274;52.012;8.448;2023-03-01T00:34:40;47.17;;;7.73;;
8474;SDS011;4274;52.012;8.448;2023-03-01T00:37:06;45.97;;;7.43;;
8474;SDS011;4274;52.012;8.448;2023-03-01T00:39:31;46.40;;;6.87;;
8474;SDS011;4274;52.012;8.448;2023-03-01T00:41:58;44.50;;;7.27;;
8474;SDS011;4274;52.012;8.448;2023-03-01T00:44:24;44.80;;;7.00;;
8474;SDS011;4274;52.012;8.448;2023-03-01T00:46:49;45.40;;;6.77;;
8474;SDS011;4274;52.012;8.448;2023-03-01T00:49:15;44.30;;;6.77;;
8474;SDS011;4274;52.012;8.448;2023-03-01T00:51:40;46.80;;;7.10;;
8474;SDS011;4274;52.012;8.448;2023-03-01T00:54:09;44.80;;;7.17;;
8474;SDS011;4274;52.012;8.448;2023-03-01T00:56:35;45.90;;;6.50;;
8474;SDS011;4274;52.012;8.448;2023-03-01T00:59:00;46.90;;;7.20;;
8474;SDS011;4274;52.012;8.448;2023-03-01T01:01:27;44.73;;;6.70;;
8474;SDS011;4274;52.012;8.448;2023-03-01T01:04:01;45.93;;;6.97;;
8474;SDS011;4274;52.012;8.448;2023-03-01T01:06:33;47.50;;;7.37;;
8474;SDS011;4274;52.012;8.448;2023-03-01T01:09:04;45.60;;;7.70;;
8474;SDS011;4274;52.012;8.448;2023-03-01T01:11:32;46.20;;;7.60;;
8474;SDS011;4274;52.012;8.448;2023-03-01T01:13:58;50.53;;;7.43;;
8474;SDS011;4274;52.012;8.448;2023-03-01T01:16:25;46.00;;;8.00;;
8474;SDS011;4274;52.012;8.448;2023-03-01T01:18:52;45.77;;;7.27;;
8474;SDS011;4274;52.012;8.448;2023-03-01T01:21:19;44.60;;;7.20;;
8474;SDS011;4274;52.012;8.448;2023-03-01T01:23:46;44.93;;;7.23;;
8474;SDS011;4274;52.012;8.448;2023-03-01T01:26:14;46.73;;;7.20;;
8474;SDS011;4274;52.012;8.448;2023-03-01T01:28:42;48.43;;;8.43;;
8474;SDS011;4274;52.012;8.448;2023-03-01T01:31:07;48.60;;;8.77;;
8474;SDS011;4274;52.012;8.448;2023-03-01T01:33:33;45.00;;;7.77;;
8474;SDS011;4274;52.012;8.448;2023-03-01T01:35:59;49.50;;;8.60;;
8474;SDS011;4274;52.012;8.448;2023-03-01T01:38:25;43.97;;;6.47;;
8474;SDS011;4274;52.012;8.448;2023-03-01T01:40:50;47.13;;;8.43;;
8474;SDS011;4274;52.012;8.448;2023-03-01T01:43:23;48.00;;;8.13;;
8474;SDS011;4274;52.012;8.448;2023-03-01T01:45:57;48.37;;;8.40;;
8474;SDS011;4274;52.012;8.448;2023-03-01T01:48:29;44.40;;;7.83;;
8474;SDS011;4274;52.012;8.448;2023-03-01T01:51:05;44.13;;;7.33;;
8474;SDS011;4274;52.012;8.448;2023-03-01T01:53:33;50.33;;;8.10;;
8474;SDS011;4274;52.012;8.448;2023-03-01T01:56:00;48.57;;;8.47;;
8474;SDS011;4274;52.012;8.448;2023-03-01T01:58:27;49.33;;;8.03;;
8474;SDS011;4274;52.012;8.448;2023-03-01T02:00:55;49.03;;;8.17;;
8474;SDS011;4274;52.012;8.448;2023-03-01T02:03:31;48.00;;;8.67;;
8474;SDS011;4274;52.012;8.448;2023-03-01T02:08:28;48.00;;;8.30;;
8474;SDS011;4274;52.012;8.448;2023-03-01T02:10:57;46.33;;;7.70;;
8474;SDS011;4274;52.012;8.448;2023-03-01T02:13:24;48.70;;;9.00;;
8474;SDS011;4274;52.012;8.448;2023-03-01T02:15:50;47.47;;;8.70;;
8474;SDS011;4274;52.012;8.448;2023-03-01T02:18:17;52.73;;;8.80;;
8474;SDS011;4274;52.012;8.448;2023-03-01T02:23:13;48.10;;;9.07;;
8474;SDS011;4274;52.012;8.448;2023-03-01T02:28:33;50.20;;;9.83;;
8474;SDS011;4274;52.012;8.448;2023-03-01T02:30:59;50.23;;;9.87;;
8474;SDS011;4274;52.012;8.448;2023-03-01T02:33:44;50.40;;;9.60;;
8474;SDS011;4274;52.012;8.448;2023-03-01T02:36:21;48.80;;;10.07;;
8474;SDS011;4274;52.012;8.448;2023-03-01T02:38:55;48.20;;;9.80;;
8474;SDS011;4274;52.012;8.448;2023-03-01T02:41:22;51.50;;;9.80;;
8474;SDS011;4274;52.012;8.448;2023-03-01T02:43:51;49.80;;;9.20;;
8474;SDS011;4274;52.012;8.448;2023-03-01T02:46:19;49.30;;;9.67;;
8474;SDS011;4274;52.012;8.448;2023-03-01T02:48:49;51.03;;;10.37;;
8474;SDS011;4274;52.012;8.448;2023-03-01T02:56:23;50.80;;;9.67;;
8474;SDS011;4274;52.012;8.448;2023-03-01T02:58:50;50.23;;;10.93;;
8474;SDS011;4274;52.012;8.448;2023-03-01T03:01:17;52.87;;;11.30;;
8474;SDS011;4274;52.012;8.448;2023-03-01T03:03:43;52.10;;;11.30;;
8474;SDS011;4274;52.012;8.448;2023-03-01T03:06:09;52.00;;;10.80;;
8474;SDS011;4274;52.012;8.448;2023-03-01T03:08:34;48.80;;;9.90;;
8474;SDS011;4274;52.012;8.448;2023-03-01T03:11:00;55.30;;;11.03;;
8474;SDS011;4274;52.012;8.448;2023-03-01T03:13:26;51.17;;;11.03;;
8474;SDS011;4274;52.012;8.448;2023-03-01T03:15:53;49.33;;;10.10;;
8474;SDS011;4274;52.012;8.448;2023-03-01T03:18:20;48.63;;;10.30;;
8474;SDS011;4274;52.012;8.448;2023-03-01T03:20:46;48.70;;;10.23;;
8474;SDS011;4274;52.012;8.448;2023-03-01T03:23:13;49.10;;;10.47;;
8474;SDS011;4274;52.012;8.448;2023-03-01T03:25:38;50.50;;;9.80;;
8474;SDS011;4274;52.012;8.448;2023-03-01T03:28:04;48.17;;;10.73;;
8474;SDS011;4274;52.012;8.448;2023-03-01T03:30:35;49.10;;;9.70;;
8474;SDS011;4274;52.012;8.448;2023-03-01T03:33:04;47.27;;;9.73;;
8474;SDS011;4274;52.012;8.448;2023-03-01T03:35:40;49.20;;;10.30;;
8474;SDS011;4274;52.012;8.448;2023-03-01T03:38:08;50.10;;;10.63;;
8474;SDS011;4274;52.012;8.448;2023-03-01T03:40:40;54.40;;;11.00;;
8474;SDS011;4274;52.012;8.448;2023-03-01T03:43:10;54.10;;;9.80;;
8474;SDS011;4274;52.012;8.448;2023-03-01T03:45:37;48.43;;;10.03;;
8474;SDS011;4274;52.012;8.448;2023-03-01T03:48:04;51.30;;;10.00;;
8474;SDS011;4274;52.012;8.448;2023-03-01T03:50:31;52.80;;;10.20;;
8474;SDS011;4274;52.012;8.448;2023-03-01T03:52:56;49.07;;;10.67;;
8474;SDS011;4274;52.012;8.448;2023-03-01T03:55:22;48.80;;;10.20;;
8474;SDS011;4274;52.012;8.448;2023-03-01T03:57:48;47.70;;;10.27;;
8474;SDS011;4274;52.012;8.448;2023-03-01T04:00:17;49.30;;;10.43;;
8474;SDS011;4274;52.012;8.448;2023-03-01T04:02:45;49.97;;;10.80;;
8474;SDS011;4274;52.012;8.448;2023-03-01T04:05:12;49.93;;;10.83;;
8474;SDS011;4274;52.012;8.448;2023-03-01T04:07:40;51.07;;;10.70;;
8474;SDS011;4274;52.012;8.448;2023-03-01T04:10:08;46.50;;;10.00;;
8474;SDS011;4274;52.012;8.448;2023-03-01T04:12:35;50.00;;;10.63;;
8474;SDS011;4274;52.012;8.448;2023-03-01T04:15:05;51.47;;;11.17;;
8474;SDS011;4274;52.012;8.448;2023-03-01T04:17:44;55.67;;;11.03;;
8474;SDS011;4274;52.012;8.448;2023-03-01T04:20:12;54.90;;;10.07;;
8474;SDS011;4274;52.012;8.448;2023-03-01T04:22:42;51.67;;;10.67;;
8474;SDS011;4274;52.012;8.448;2023-03-01T04:25:11;47.30;;;10.27;;
8474;SDS011;4274;52.012;8.448;2023-03-01T04:27:39;57.80;;;11.37;;
8474;SDS011;4274;52.012;8.448;2023-03-01T04:30:05;50.23;;;12.10;;
8474;SDS011;4274;52.012;8.448;2023-03-01T04:32:31;49.17;;;11.13;;
8474;SDS011;4274;52.012;8.448;2023-03-01T04:34:57;52.30;;;11.23;;
8474;SDS011;4274;52.012;8.448;2023-03-01T04:37:23;49.70;;;11.10;;
8474;SDS011;4274;52.012;8.448;2023-03-01T04:39:52;49.87;;;10.83;;
8474;SDS011;4274;52.012;8.448;2023-03-01T04:42:18;51.90;;;12.00;;
8474;SDS011;4274;52.012;8.448;2023-03-01T04:44:44;51.40;;;10.13;;
8474;SDS011;4274;52.012;8.448;2023-03-01T04:47:10;48.60;;;10.27;;
8474;SDS011;4274;52.012;8.448;2023-03-01T04:49:36;49.60;;;10.40;;
8474;SDS011;4274;52.012;8.448;2023-03-01T04:52:02;48.90;;;10.23;;
8474;SDS011;4274;52.012;8.448;2023-03-01T04:54:32;54.83;;;10.80;;
8474;SDS011;4274;52.012;8.448;2023-03-01T04:56:59;47.70;;;9.50;;
8474;SDS011;4274;52.012;8.448;2023-03-01T04:59:25;49.07;;;10.63;;
8474;SDS011;4274;52.012;8.448;2023-03-01T05:01:51;47.47;;;10.23;;
8474;SDS011;4274;52.012;8.448;2023-03-01T05:04:20;48.37;;;11.17;;
8474;SDS011;4274;52.012;8.448;2023-03-01T05:06:46;49.53;;;10.40;;
8474;SDS011;4274;52.012;8.448;2023-03-01T05:09:12;48.10;;;10.30;;
8474;SDS011;4274;52.012;8.448;2023-03-01T05:11:37;47.73;;;8.90;;
8474;SDS011;4274;52.012;8.448;2023-03-01T05:14:03;50.73;;;9.87;;
8474;SDS011;4274;52.012;8.448;2023-03-01T05:16:30;48.63;;;9.57;;
8474;SDS011;4274;52.012;8.448;2023-03-01T05:18:56;47.40;;;9.50;;
8474;SDS011;4274;52.012;8.448;2023-03-01T05:21:23;48.20;;;9.60;;
8474;SDS011;4274;52.012;8.448;2023-03-01T05:23:49;49.70;;;9.23;;
8474;SDS011;4274;52.012;8.448;2023-03-01T05:26:15;48.03;;;10.07;;
8474;SDS011;4274;52.012;8.448;2023-03-01T05:28:42;51.70;;;10.90;;
8474;SDS011;4274;52.012;8.448;2023-03-01T05:31:09;48.50;;;9.83;;
8474;SDS011;4274;52.012;8.448;2023-03-01T05:33:36;49.80;;;10.43;;
8474;SDS011;4274;52.012;8.448;2023-03-01T05:36:03;51.30;;;10.33;;
8474;SDS011;4274;52.012;8.448;2023-03-01T05:38:29;49.30;;;11.43;;
8474;SDS011;4274;52.012;8.448;2023-03-01T05:40:54;54.53;;;12.03;;
8474;SDS011;4274;52.012;8.448;2023-03-01T05:43:20;50.10;;;11.17;;
8474;SDS011;4274;52.012;8.448;2023-03-01T05:45:46;50.13;;;10.70;;
8474;SDS011;4274;52.012;8.448;2023-03-01T05:48:12;49.33;;;11.33;;
8474;SDS011;4274;52.012;8.448;2023-03-01T05:50:42;49.10;;;10.20;;
8474;SDS011;4274;52.012;8.448;2023-03-01T05:53:13;50.03;;;11.63;;
8474;SDS011;4274;52.012;8.448;2023-03-01T05:55:41;51.27;;;11.63;;
8474;SDS011;4274;52.012;8.448;2023-03-01T05:58:09;53.07;;;11.60;;
8474;SDS011;4274;52.012;8.448;2023-03-01T06:00:36;52.00;;;10.40;;
8474;SDS011;4274;52.012;8.448;2023-03-01T06:03:02;49.90;;;10.87;;
8474;SDS011;4274;52.012;8.448;2023-03-01T06:05:28;49.30;;;10.00;;
8474;SDS011;4274;52.012;8.448;2023-03-01T06:07:54;55.67;;;12.20;;
8474;SDS011;4274;52.012;8.448;2023-03-01T06:10:23;55.57;;;11.50;;
8474;SDS011;4274;52.012;8.448;2023-03-01T06:12:48;49.80;;;11.37;;
8474;SDS011;4274;52.012;8.448;2023-03-01T06:15:15;53.40;;;10.90;;
8474;SDS011;4274;52.012;8.448;2023-03-01T06:17:42;54.23;;;11.33;;
8474;SDS011;4274;52.012;8.448;2023-03-01T06:20:19;48.27;;;10.73;;
8474;SDS011;4274;52.012;8.448;2023-03-01T06:22:46;49.90;;;11.30;;
8474;SDS011;4274;52.012;8.448;2023-03-01T06:25:13;60.30;;;12.03;;
8474;SDS011;4274;52.012;8.448;2023-03-01T06:27:41;51.17;;;11.30;;
8474;SDS011;4274;52.012;8.448;2023-03-01T06:30:07;50.30;;;11.87;;
8474;SDS011;4274;52.012;8.448;2023-03-01T06:32:35;53.47;;;13.50;;
8474;SDS011;4274;52.012;8.448;2023-03-01T06:35:02;50.57;;;12.23;;
8474;SDS011;4274;52.012;8.448;2023-03-01T06:37:28;51.37;;;13.10;;
8474;SDS011;4274;52.012;8.448;2023-03-01T06:39:53;53.27;;;12.77;;
8474;SDS011;4274;52.012;8.448;2023-03-01T06:42:19;55.00;;;11.77;;
8474;SDS011;4274;52.012;8.448;2023-03-01T06:44:45;52.67;;;12.97;;
8474;SDS011;4274;52.012;8.448;2023-03-01T06:47:10;50.33;;;11.80;;
8474;SDS011;4274;52.012;8.448;2023-03-01T06:49:36;50.30;;;10.30;;
8474;SDS011;4274;52.012;8.448;2023-03-01T06:52:02;52.97;;;11.13;;
8474;SDS011;4274;52.012;8.448;2023-03-01T06:54:27;53.10;;;11.80;;
8474;SDS011;4274;52.012;8.448;2023-03-01T06:56:53;51.40;;;12.20;;
8474;SDS011;4274;52.012;8.448;2023-03-01T06:59:18;56.50;;;13.10;;
8474;SDS011;4274;52.012;8.448;2023-03-01T07:01:44;57.53;;;13.40;;
8474;SDS011;4274;52.012;8.448;2023-03-01T07:04:10;62.20;;;15.73;;
8474;SDS011;4274;52.012;8.448;2023-03-01T07:06:37;64.63;;;16.87;;
8474;SDS011;4274;52.012;8.448;2023-03-01T07:09:02;54.83;;;12.80;;
8474;SDS011;4274;52.012;8.448;2023-03-01T07:11:28;53.47;;;12.83;;
8474;SDS011;4274;52.012;8.448;2023-03-01T07:13:53;54.80;;;11.47;;
8474;SDS011;4274;52.012;8.448;2023-03-01T07:16:20;51.27;;;10.80;;
8474;SDS011;4274;52.012;8.448;2023-03-01T07:18:45;54.10;;;11.50;;
8474;SDS011;4274;52.012;8.448;2023-03-01T07:21:12;51.97;;;11.63;;
8474;SDS011;4274;52.012;8.448;2023-03-01T07:23:39;49.77;;;9.93;;
8474;SDS011;4274;52.012;8.448;2023-03-01T07:26:04;48.60;;;10.47;;
8474;SDS011;4274;52.012;8.448;2023-03-01T07:28:30;53.03;;;11.40;;
8474;SDS011;4274;52.012;8.448;2023-03-01T07:31:01;49.87;;;9.83;;
8474;SDS011;4274;52.012;8.448;2023-03-01T07:33:27;49.40;;;10.17;;
8474;SDS011;4274;52.012;8.448;2023-03-01T07:35:56;50.43;;;10.23;;
8474;SDS011;4274;52.012;8.448;2023-03-01T07:38:23;47.70;;;9.43;;
8474;SDS011;4274;52.012;8.448;2023-03-01T07:40:48;47.50;;;9.17;;
8474;SDS011;4274;52.012;8.448;2023-03-01T07:43:14;48.47;;;10.10;;
8474;SDS011;4274;52.012;8.448;2023-03-01T07:45:39;48.53;;;9.97;;
8474;SDS011;4274;52.012;8.448;2023-03-01T07:48:05;48.30;;;10.47;;
8474;SDS011;4274;52.012;8.448;2023-03-01T07:50:30;47.20;;;9.80;;
8474;SDS011;4274;52.012;8.448;2023-03-01T07:52:56;48.67;;;9.57;;
8474;SDS011;4274;52.012;8.448;2023-03-01T07:55:22;48.17;;;10.83;;
8474;SDS011;4274;52.012;8.448;2023-03-01T07:57:48;47.97;;;9.40;;
8474;SDS011;4274;52.012;8.448;2023-03-01T08:00:13;48.43;;;9.20;;
8474;SDS011;4274;52.012;8.448;2023-03-01T08:02:39;50.87;;;9.23;;
8474;SDS011;4274;52.012;8.448;2023-03-01T08:05:06;55.17;;;10.00;;
8474;SDS011;4274;52.012;8.448;2023-03-01T08:07:33;50.50;;;9.60;;
8474;SDS011;4274;52.012;8.448;2023-03-01T08:09:59;46.60;;;9.00;;
8474;SDS011;4274;52.012;8.448;2023-03-01T08:12:25;49.40;;;9.67;;
8474;SDS011;4274;52.012;8.448;2023-03-01T08:14:52;48.37;;;8.97;;
8474;SDS011;4274;52.012;8.448;2023-03-01T08:17:18;54.13;;;9.00;;
8474;SDS011;4274;52.012;8.448;2023-03-01T08:19:44;49.93;;;9.53;;
8474;SDS011;4274;52.012;8.448;2023-03-01T08:22:10;48.13;;;8.83;;
8474;SDS011;4274;52.012;8.448;2023-03-01T08:24:35;49.73;;;9.30;;
8474;SDS011;4274;52.012;8.448;2023-03-01T08:27:01;48.70;;;9.37;;
8474;SDS011;4274;52.012;8.448;2023-03-01T08:29:27;48.30;;;9.20;;
8474;SDS011;4274;52.012;8.448;2023-03-01T08:31:55;52.03;;;10.30;;
8474;SDS011;4274;52.012;8.448;2023-03-01T08:34:21;48.73;;;8.57;;
8474;SDS011;4274;52.012;8.448;2023-03-01T08:36:46;57.77;;;9.17;;
8474;SDS011;4274;52.012;8.448;2023-03-01T08:39:13;50.70;;;9.30;;
8474;SDS011;4274;52.012;8.448;2023-03-01T08:41:40;49.40;;;9.07;;
8474;SDS011;4274;52.012;8.448;2023-03-01T08:44:06;51.50;;;9.47;;
8474;SDS011;4274;52.012;8.448;2023-03-01T08:46:33;68.20;;;18.40;;
8474;SDS011;4274;52.012;8.448;2023-03-01T08:49:04;53.67;;;11.10;;
8474;SDS011;4274;52.012;8.448;2023-03-01T08:51:30;52.20;;;9.90;;
8474;SDS011;4274;52.012;8.448;2023-03-01T08:54:01;50.30;;;9.53;;
8474;SDS011;4274;52.012;8.448;2023-03-01T08:56:46;52.57;;;10.60;;
8474;SDS011;4274;52.012;8.448;2023-03-01T08:59:13;49.73;;;9.20;;
8474;SDS011;4274;52.012;8.448;2023-03-01T09:01:39;53.67;;;11.97;;
8474;SDS011;4274;52.012;8.448;2023-03-01T09:04:08;53.43;;;11.77;;
8474;SDS011;4274;52.012;8.448;2023-03-01T09:06:34;53.57;;;10.83;;
8474;SDS011;4274;52.012;8.448;2023-03-01T09:09:00;55.67;;;12.10;;
8474;SDS011;4274;52.012;8.448;2023-03-01T09:11:27;53.27;;;10.13;;
8474;SDS011;4274;52.012;8.448;2023-03-01T09:13:53;55.20;;;9.63;;
8474;SDS011;4274;52.012;8.448;2023-03-01T09:16:19;51.73;;;10.20;;
8474;SDS011;4274;52.012;8.448;2023-03-01T09:18:50;51.50;;;9.77;;
8474;SDS011;4274;52.012;8.448;2023-03-01T09:21:18;49.30;;;9.17;;
8474;SDS011;4274;52.012;8.448;2023-03-01T09:23:45;51.00;;;9.13;;
8474;SDS011;4274;52.012;8.448;2023-03-01T09:26:13;50.07;;;9.40;;
8474;SDS011;4274;52.012;8.448;2023-03-01T09:28:41;53.40;;;8.80;;
8474;SDS011;4274;52.012;8.448;2023-03-01T09:31:07;51.00;;;9.30;;
8474;SDS011;4274;52.012;8.448;2023-03-01T09:33:33;51.17;;;9.30;;
8474;SDS011;4274;52.012;8.448;2023-03-01T09:36:00;50.50;;;9.50;;
8474;SDS011;4274;52.012;8.448;2023-03-01T09:38:27;54.87;;;9.60;;
8474;SDS011;4274;52.012;8.448;2023-03-01T09:40:53;55.23;;;10.00;;
8474;SDS011;4274;52.012;8.448;2023-03-01T09:43:42;48.40;;;8.90;;
8474;SDS011;4274;52.012;8.448;2023-03-01T09:46:19;52.40;;;9.70;;
8474;SDS011;4274;52.012;8.448;2023-03-01T09:49:06;53.67;;;9.70;;
8474;SDS011;4274;52.012;8.448;2023-03-01T09:51:41;52.97;;;10.17;;
8474;SDS011;4274;52.012;8.448;2023-03-01T09:54:09;50.30;;;9.30;;
8474;SDS011;4274;52.012;8.448;2023-03-01T10:05:15;52.30;;;9.00;;
8474;SDS011;4274;52.012;8.448;2023-03-01T10:08:06;54.57;;;9.50;;
8474;SDS011;4274;52.012;8.448;2023-03-01T10:10:56;52.90;;;8.80;;
8474;SDS011;4274;52.012;8.448;2023-03-01T10:16:28;55.03;;;9.43;;
8474;SDS011;4274;52.012;8.448;2023-03-01T10:19:04;52.33;;;8.40;;
8474;SDS011;4274;52.012;8.448;2023-03-01T10:21:35;53.13;;;8.30;;
8474;SDS011;4274;52.012;8.448;2023-03-01T10:24:09;52.00;;;8.33;;
8474;SDS011;4274;52.012;8.448;2023-03-01T10:26:57;50.50;;;8.47;;
8474;SDS011;4274;52.012;8.448;2023-03-01T10:29:31;49.37;;;7.53;;
8474;SDS011;4274;52.012;8.448;2023-03-01T10:32:03;50.90;;;8.77;;
8474;SDS011;4274;52.012;8.448;2023-03-01T10:34:32;50.23;;;8.50;;
8474;SDS011;4274;52.012;8.448;2023-03-01T10:37:13;51.80;;;9.03;;
8474;SDS011;4274;52.012;8.448;2023-03-01T10:42:35;51.73;;;8.57;;
8474;SDS011;4274;52.012;8.448;2023-03-01T10:45:50;50.23;;;8.23;;
8474;SDS011;4274;52.012;8.448;2023-03-01T10:58:26;54.97;;;7.77;;
8474;SDS011;4274;52.012;8.448;2023-03-01T11:05:57;49.47;;;7.07;;
8474;SDS011;4274;52.012;8.448;2023-03-01T11:14:45;50.97;;;8.27;;
8474;SDS011;4274;52.012;8.448;2023-03-01T11:16:40;50.87;;;7.87;;
8474;SDS011;4274;52.012;8.448;2023-03-01T11:21:34;50.37;;;7.80;;
8474;SDS011;4274;52.012;8.448;2023-03-01T11:24:05;54.13;;;7.53;;
8474;SDS011;4274;52.012;8.448;2023-03-01T11:26:36;49.67;;;7.90;;
8474;SDS011;4274;52.012;8.448;2023-03-01T11:29:06;49.57;;;7.73;;
8474;SDS011;4274;52.012;8.448;2023-03-01T11:31:38;50.20;;;7.63;;
8474;SDS011;4274;52.012;8.448;2023-03-01T11:34:09;51.30;;;7.97;;
8474;SDS011;4274;52.012;8.448;2023-03-01T11:36:56;49.93;;;7.57;;
8474;SDS011;4274;52.012;8.448;2023-03-01T11:42:12;51.10;;;7.33;;
8474;SDS011;4274;52.012;8.448;2023-03-01T11:44:43;49.00;;;7.10;;
8474;SDS011;4274;52.012;8.448;2023-03-01T11:47:19;51.73;;;8.40;;
8474;SDS011;4274;52.012;8.448;2023-03-01T11:49:58;50.87;;;7.30;;
8474;SDS011;4274;52.012;8.448;2023-03-01T11:52:54;48.80;;;6.23;;
8474;SDS011;4274;52.012;8.448;2023-03-01T12:03:43;50.40;;;6.90;;
8474;SDS011;4274;52.012;8.448;2023-03-01T12:09:27;49.63;;;6.43;;
8474;SDS011;4274;52.012;8.448;2023-03-01T12:12:08;49.97;;;6.93;;
8474;SDS011;4274;52.012;8.448;2023-03-01T12:14:45;48.77;;;6.30;;
8474;SDS011;4274;52.012;8.448;2023-03-01T12:17:43;51.27;;;5.90;;
8474;SDS011;4274;52.012;8.448;2023-03-01T12:26:15;53.17;;;6.57;;
8474;SDS011;4274;52.012;8.448;2023-03-01T12:29:02;48.90;;;6.80;;
8474;SDS011;4274;52.012;8.448;2023-03-01T12:37:41;48.00;;;6.27;;
8474;SDS011;4274;52.012;8.448;2023-03-01T12:40:15;51.63;;;8.17;;
8474;SDS011;4274;52.012;8.448;2023-03-01T12:51:19;50.47;;;7.07;;
8474;SDS011;4274;52.012;8.448;2023-03-01T12:53:50;49.60;;;5.53;;
8474;SDS011;4274;52.012;8.448;2023-03-01T12:56:19;50.80;;;5.97;;
8474;SDS011;4274;52.012;8.448;2023-03-01T13:04:12;49.23;;;6.70;;
8474;SDS011;4274;52.012;8.448;2023-03-01T13:12:51;49.30;;;5.90;;
8474;SDS011;4274;52.012;8.448;2023-03-01T13:18:33;50.73;;;5.50;;
8474;SDS011;4274;52.012;8.448;2023-03-01T13:23:10;48.37;;;6.70;;
8474;SDS011;4274;52.012;8.448;2023-03-01T13:33:54;48.70;;;5.77;;
8474;SDS011;4274;52.012;8.448;2023-03-01T13:39:00;49.50;;;4.70;;
8474;SDS011;4274;52.012;8.448;2023-03-01T13:49:23;46.10;;;4.70;;
8474;SDS011;4274;52.012;8.448;2023-03-01T13:51:52;50.20;;;5.97;;
8474;SDS011;4274;52.012;8.448;2023-03-01T13:54:26;46.93;;;6.00;;
8474;SDS011;4274;52.012;8.448;2023-03-01T13:56:55;49.10;;;6.40;;
8474;SDS011;4274;52.012;8.448;2023-03-01T13:59:22;48.97;;;6.27;;
8474;SDS011;4274;52.012;8.448;2023-03-01T14:01:52;48.30;;;5.93;;
8474;SDS011;4274;52.012;8.448;2023-03-01T14:04:30;47.67;;;6.17;;
8474;SDS011;4274;52.012;8.448;2023-03-01T14:07:17;47.30;;;5.37;;
8474;SDS011;4274;52.012;8.448;2023-03-01T14:09:46;65.50;;;11.10;;
8474;SDS011;4274;52.012;8.448;2023-03-01T14:17:47;48.43;;;5.80;;
8474;SDS011;4274;52.012;8.448;2023-03-01T14:20:24;48.20;;;5.67;;
8474;SDS011;4274;52.012;8.448;2023-03-01T14:22:53;49.00;;;5.47;;
8474;SDS011;4274;52.012;8.448;2023-03-01T14:25:23;49.23;;;5.37;;
8474;SDS011;4274;52.012;8.448;2023-03-01T14:27:54;48.00;;;5.40;;
8474;SDS011;4274;52.012;8.448;2023-03-01T14:30:38;47.00;;;5.50;;
8474;SDS011;4274;52.012;8.448;2023-03-01T14:33:24;47.50;;;5.90;;
8474;SDS011;4274;52.012;8.448;2023-03-01T14:36:02;44.87;;;4.83;;
8474;SDS011;4274;52.012;8.448;2023-03-01T14:38:45;46.30;;;5.53;;
8474;SDS011;4274;52.012;8.448;2023-03-01T14:41:22;46.60;;;5.47;;
8474;SDS011;4274;52.012;8.448;2023-03-01T14:43:54;45.20;;;4.67;;
8474;SDS011;4274;52.012;8.448;2023-03-01T14:46:26;44.97;;;4.90;;
8474;SDS011;4274;52.012;8.448;2023-03-01T14:49:19;46.43;;;5.20;;
8474;SDS011;4274;52.012;8.448;2023-03-01T14:54:18;46.67;;;5.30;;
8474;SDS011;4274;52.012;8.448;2023-03-01T14:56:48;45.40;;;5.30;;
8474;SDS011;4274;52.012;8.448;2023-03-01T14:59:18;43.73;;;4.43;;
8474;SDS011;4274;52.012;8.448;2023-03-01T15:01:47;47.10;;;5.40;;
8474;SDS011;4274;52.012;8.448;2023-03-01T15:04:13;46.67;;;5.20;;
8474;SDS011;4274;52.012;8.448;2023-03-01T15:06:39;46.07;;;5.07;;
8474;SDS011;4274;52.012;8.448;2023-03-01T15:09:06;46.47;;;5.50;;
8474;SDS011;4274;52.012;8.448;2023-03-01T15:11:38;43.83;;;4.30;;
8474;SDS011;4274;52.012;8.448;2023-03-01T15:16:53;44.67;;;4.93;;
8474;SDS011;4274;52.012;8.448;2023-03-01T15:19:19;45.30;;;4.80;;
8474;SDS011;4274;52.012;8.448;2023-03-01T15:21:47;43.77;;;5.13;;
8474;SDS011;4274;52.012;8.448;2023-03-01T15:24:20;44.97;;;4.70;;
8474;SDS011;4274;52.012;8.448;2023-03-01T15:26:58;43.63;;;5.07;;
8474;SDS011;4274;52.012;8.448;2023-03-01T15:29:32;45.30;;;4.73;;
8474;SDS011;4274;52.012;8.448;2023-03-01T15:32:06;52.50;;;5.10;;
8474;SDS011;4274;52.012;8.448;2023-03-01T15:34:55;44.30;;;4.27;;
8474;SDS011;4274;52.012;8.448;2023-03-01T15:37:47;44.10;;;4.87;;
8474;SDS011;4274;52.012;8.448;2023-03-01T15:40:24;44.90;;;5.10;;
8474;SDS011;4274;52.012;8.448;2023-03-01T15:43:00;44.60;;;5.10;;
8474;SDS011;4274;52.012;8.448;2023-03-01T15:45:28;44.63;;;4.83;;
8474;SDS011;4274;52.012;8.448;2023-03-01T15:48:00;42.80;;;4.47;;
8474;SDS011;4274;52.012;8.448;2023-03-01T15:50:29;46.13;;;5.37;;
8474;SDS011;4274;52.012;8.448;2023-03-01T15:52:55;46.67;;;5.30;;
8474;SDS011;4274;52.012;8.448;2023-03-01T15:57:48;42.97;;;4.70;;
8474;SDS011;4274;52.012;8.448;2023-03-01T16:00:15;44.43;;;5.23;;
8474;SDS011;4274;52.012;8.448;2023-03-01T16:02:42;46.37;;;5.43;;
8474;SDS011;4274;52.012;8.448;2023-03-01T16:05:17;43.37;;;5.30;;
8474;SDS011;4274;52.012;8.448;2023-03-01T16:07:48;42.70;;;4.77;;
8474;SDS011;4274;52.012;8.448;2023-03-01T16:10:14;47.10;;;5.53;;
8474;SDS011;4274;52.012;8.448;2023-03-01T16:12:40;45.47;;;5.20;;
8474;SDS011;4274;52.012;8.448;2023-03-01T16:15:12;43.20;;;4.40;;
8474;SDS011;4274;52.012;8.448;2023-03-01T16:17:41;44.80;;;4.30;;
8474;SDS011;4274;52.012;8.448;2023-03-01T16:20:07;45.43;;;5.23;;
8474;SDS011;4274;52.012;8.448;2023-03-01T16:22:33;51.73;;;7.63;;
8474;SDS011;4274;52.012;8.448;2023-03-01T16:24:59;47.80;;;7.60;;
8474;SDS011;4274;52.012;8.448;2023-03-01T16:27:25;45.10;;;5.33;;
8474;SDS011;4274;52.012;8.448;2023-03-01T16:29:50;46.57;;;5.50;;
8474;SDS011;4274;52.012;8.448;2023-03-01T16:32:16;43.73;;;4.77;;
8474;SDS011;4274;52.012;8.448;2023-03-01T16:34:41;46.30;;;6.80;;
8474;SDS011;4274;52.012;8.448;2023-03-01T16:37:07;47.00;;;7.67;;
8474;SDS011;4274;52.012;8.448;2023-03-01T16:39:32;46.20;;;6.03;;
8474;SDS011;4274;52.012;8.448;2023-03-01T16:41:59;45.50;;;5.90;;
8474;SDS011;4274;52.012;8.448;2023-03-01T16:44:26;48.27;;;8.77;;
8474;SDS011;4274;52.012;8.448;2023-03-01T16:46:51;52.00;;;8.27;;
8474;SDS011;4274;52.012;8.448;2023-03-01T16:49:17;46.77;;;6.67;;
8474;SDS011;4274;52.012;8.448;2023-03-01T16:51:42;48.57;;;8.30;;
8474;SDS011;4274;52.012;8.448;2023-03-01T16:54:09;52.27;;;9.47;;
8474;SDS011;4274;52.012;8.448;2023-03-01T16:56:35;43.93;;;5.23;;
8474;SDS011;4274;52.012;8.448;2023-03-01T16:59:03;47.97;;;6.43;;
8474;SDS011;4274;52.012;8.448;2023-03-01T17:01:29;58.67;;;12.50;;
8474;SDS011;4274;52.012;8.448;2023-03-01T17:04:02;49.97;;;7.20;;
8474;SDS011;4274;52.012;8.448;2023-03-01T17:06:28;50.07;;;8.67;;
8474;SDS011;4274;52.012;8.448;2023-03-01T17:08:54;55.00;;;10.17;;
8474;SDS011;4274;52.012;8.448;2023-03-01T17:11:20;50.57;;;8.80;;
8474;SDS011;4274;52.012;8.448;2023-03-01T17:13:46;48.30;;;8.33;;
8474;SDS011;4274;52.012;8.448;2023-03-01T17:16:13;50.27;;;9.53;;
8474;SDS011;4274;52.012;8.448;2023-03-01T17:18:41;48.90;;;6.33;;
8474;SDS011;4274;52.012;8.448;2023-03-01T17:21:07;43.30;;;5.00;;
8474;SDS011;4274;52.012;8.448;2023-03-01T17:23:35;49.47;;;8.20;;